createdAt,value
2024-03-16T00:00:19.832Z,99218.97
2024-03-16T00:00:51.982Z,99215.56
2024-03-16T00:01:24.472Z,99213.66
2024-03-16T00:01:56.686Z,99210.81
2024-03-16T00:02:28.735Z,99216.97
2024-03-16T00:03:01.218Z,99211.66
2024-03-16T00:03:33.470Z,99218.69
2024-03-16T00:04:05.563Z,99219.56
2024-03-16T00:04:37.645Z,99216.97
2024-03-16T00:05:09.617Z,99210.81
2024-03-16T00:05:41.694Z,99214.31
2024-03-16T00:06:13.631Z,99214.03
2024-03-16T00:06:45.713Z,99215.81
2024-03-16T00:07:17.740Z,99210.63
2024-03-16T00:07:50.697Z,99212.44
2024-03-16T00:08:22.685Z,99216.81
2024-03-16T00:08:54.655Z,99213.38
2024-03-16T00:09:26.654Z,99217.75
2024-03-16T00:09:58.632Z,99215.81
2024-03-16T00:10:30.849Z,99220.13
2024-03-16T00:11:02.936Z,99221.94
2024-03-16T00:11:35.124Z,99213.75
2024-03-16T00:12:07.512Z,99217.91
2024-03-16T00:12:39.428Z,99212.59
2024-03-16T00:13:11.461Z,99214.31
2024-03-16T00:13:43.595Z,99216.13
2024-03-16T00:14:15.568Z,99216.31
2024-03-16T00:14:49.546Z,99215.53
2024-03-16T00:15:21.610Z,99213.81
2024-03-16T00:15:53.683Z,99213.66
2024-03-16T00:16:25.618Z,99210.00
2024-03-16T00:16:57.515Z,99208.88
2024-03-16T00:17:29.735Z,99210.59
2024-03-16T00:18:01.793Z,99213.91
2024-03-16T00:18:37.743Z,99203.03
2024-03-16T00:19:09.985Z,99207.44
2024-03-16T00:19:41.973Z,99209.16
2024-03-16T00:20:15.153Z,99208.28
2024-03-16T00:20:47.087Z,99208.81
2024-03-16T00:21:19.006Z,99209.69
2024-03-16T00:21:52.064Z,99205.88
2024-03-16T00:22:24.144Z,99206.00
2024-03-16T00:22:56.043Z,99210.53
2024-03-16T00:23:29.988Z,99209.59
2024-03-16T00:24:01.969Z,99208.81
2024-03-16T00:24:33.948Z,99215.00
2024-03-16T00:25:10.256Z,99210.44
2024-03-16T00:25:42.220Z,99211.97
2024-03-16T00:26:14.188Z,99209.38
2024-03-16T00:26:46.311Z,99209.38
2024-03-16T00:27:19.346Z,99210.25
2024-03-16T00:27:54.086Z,99209.31
2024-03-16T00:28:26.134Z,99203.84
2024-03-16T00:28:58.028Z,99211.66
2024-03-16T00:29:30.067Z,99204.31
2024-03-16T00:30:02.267Z,99206.22
2024-03-16T00:30:34.698Z,99205.38
2024-03-16T00:31:07.626Z,99207.16
2024-03-16T00:31:39.849Z,99209.84
2024-03-16T00:32:11.793Z,99206.22
2024-03-16T00:32:43.727Z,99205.50
2024-03-16T00:33:16.068Z,99206.22
2024-03-16T00:33:48.057Z,99205.88
2024-03-16T00:34:20.483Z,99205.78
2024-03-16T00:34:52.601Z,99203.97
2024-03-16T00:35:25.930Z,99206.72
2024-03-16T00:35:57.968Z,99204.16
2024-03-16T00:36:31.716Z,99203.19
2024-03-16T00:37:05.939Z,99208.44
2024-03-16T00:37:38.268Z,99204.06
2024-03-16T00:38:11.222Z,99206.00
2024-03-16T00:38:43.456Z,99207.78
2024-03-16T00:39:19.623Z,99206.06
2024-03-16T00:39:51.887Z,99207.78
2024-03-16T00:40:24.049Z,99213.19
2024-03-16T00:40:56.418Z,99211.41
2024-03-16T00:41:28.673Z,99209.81
2024-03-16T00:42:00.671Z,99212.34
2024-03-16T00:42:32.787Z,99215.00
2024-03-16T00:43:05.729Z,99208.81
2024-03-16T00:43:38.219Z,99202.56
2024-03-16T00:44:10.376Z,99210.44
2024-03-16T00:44:42.399Z,99201.81
2024-03-16T00:45:14.512Z,99208.72
2024-03-16T00:45:46.685Z,99208.72
2024-03-16T00:46:18.668Z,99207.03
2024-03-16T00:46:50.536Z,99201.81
2024-03-16T00:47:22.713Z,99205.41
2024-03-16T00:47:57.472Z,99208.94
2024-03-16T00:48:29.921Z,99203.69
2024-03-16T00:49:01.860Z,99208.16
2024-03-16T00:49:33.943Z,99203.16
2024-03-16T00:50:06.366Z,99200.59
2024-03-16T00:50:38.303Z,99196.31
2024-03-16T00:51:11.907Z,99204.19
2024-03-16T00:51:44.136Z,99203.47
2024-03-16T00:52:16.174Z,99200.88
2024-03-16T00:52:48.365Z,99199.06
2024-03-16T00:53:20.305Z,99200.88
2024-03-16T00:53:52.289Z,99202.69
2024-03-16T00:54:25.107Z,99203.75
2024-03-16T00:54:57.970Z,99195.75
2024-03-16T00:55:31.168Z,99196.69
2024-03-16T00:56:04.516Z,99203.00
2024-03-16T00:56:36.605Z,99197.56
2024-03-16T00:57:08.518Z,99202.88
2024-03-16T00:57:40.751Z,99197.69
2024-03-16T00:58:12.869Z,99198.50
2024-03-16T00:58:44.932Z,99191.50
2024-03-16T00:59:17.220Z,99195.97
2024-03-16T00:59:49.312Z,99189.78
2024-03-16T01:00:21.733Z,99195.09
2024-03-16T01:00:53.895Z,99200.50
2024-03-16T01:01:29.334Z,99198.91
2024-03-16T01:02:01.624Z,99194.66
2024-03-16T01:02:33.588Z,99190.47
2024-03-16T01:03:05.635Z,99190.34
2024-03-16T01:03:37.790Z,99197.41
2024-03-16T01:04:10.073Z,99191.41
2024-03-16T01:04:42.038Z,99202.16
2024-03-16T01:05:14.951Z,99196.16
2024-03-16T01:05:52.412Z,99192.75
2024-03-16T01:06:24.384Z,99194.47
2024-03-16T01:06:56.477Z,99190.19
2024-03-16T01:07:28.442Z,99193.81
2024-03-16T01:08:00.508Z,99196.66
2024-03-16T01:08:32.570Z,99196.78
2024-03-16T01:09:05.086Z,99189.72
2024-03-16T01:09:37.079Z,99191.53
2024-03-16T01:10:12.672Z,99187.94
2024-03-16T01:10:45.218Z,99198.66
2024-03-16T01:11:17.433Z,99193.34
2024-03-16T01:11:49.450Z,99197.81
2024-03-16T01:12:21.398Z,99193.53
2024-03-16T01:12:53.394Z,99198.97
2024-03-16T01:13:25.448Z,99197.25
2024-03-16T01:13:57.625Z,99190.41
2024-03-16T01:14:30.171Z,99195.66
2024-03-16T01:15:02.094Z,99193.94
2024-03-16T01:15:34.208Z,99193.94
2024-03-16T01:16:06.258Z,99196.66
2024-03-16T01:16:38.468Z,99192.31
2024-03-16T01:17:10.485Z,99195.81
2024-03-16T01:17:43.523Z,99192.41
2024-03-16T01:18:15.765Z,99195.16
2024-03-16T01:18:47.820Z,99197.81
2024-03-16T01:19:19.853Z,99196.13
2024-03-16T01:19:52.086Z,99200.78
2024-03-16T01:20:25.521Z,99202.59
2024-03-16T01:20:57.516Z,99193.94
2024-03-16T01:21:29.565Z,99203.81
2024-03-16T01:22:02.693Z,99199.34
2024-03-16T01:22:34.728Z,99198.28
2024-03-16T01:23:07.803Z,99199.25
2024-03-16T01:23:40.324Z,99196.59
2024-03-16T01:24:12.342Z,99194.03
2024-03-16T01:24:44.310Z,99192.31
2024-03-16T01:25:16.471Z,99196.88
2024-03-16T01:25:48.556Z,99195.16
2024-03-16T01:26:20.485Z,99193.75
2024-03-16T01:26:52.488Z,99187.56
2024-03-16T01:27:24.412Z,99193.91
2024-03-16T01:27:57.961Z,99184.06
2024-03-16T01:28:29.922Z,99194.69
2024-03-16T01:29:04.956Z,99183.13
2024-03-16T01:29:36.911Z,99191.09
2024-03-16T01:30:09.525Z,99190.44
2024-03-16T01:30:41.630Z,99191.25
2024-03-16T01:31:15.091Z,99182.53
2024-03-16T01:31:47.329Z,99189.78
2024-03-16T01:32:19.510Z,99191.66
2024-03-16T01:32:51.829Z,99183.09
2024-03-16T01:33:24.200Z,99184.91
2024-03-16T01:33:56.589Z,99187.75
2024-03-16T01:34:28.753Z,99186.06
2024-03-16T01:35:00.775Z,99173.78
2024-03-16T01:35:32.721Z,99179.09
2024-03-16T01:36:05.008Z,99187.75
2024-03-16T01:36:37.026Z,99181.28
2024-03-16T01:37:09.143Z,99181.94
2024-03-16T01:37:41.273Z,99189.66
2024-03-16T01:38:13.642Z,99183.59
2024-03-16T01:38:45.691Z,99184.44
2024-03-16T01:39:17.705Z,99188.06
2024-03-16T01:39:51.263Z,99188.25
2024-03-16T01:40:26.718Z,99186.53
2024-03-16T01:40:58.769Z,99192.03
2024-03-16T01:41:30.742Z,99182.25
2024-03-16T01:42:04.620Z,99192.03
2024-03-16T01:42:37.580Z,99192.97
2024-03-16T01:43:14.264Z,99188.53
2024-03-16T01:43:49.651Z,99183.19
2024-03-16T01:44:21.621Z,99190.13
2024-03-16T01:45:11.573Z,99196.31
2024-03-16T01:45:44.572Z,99188.25
2024-03-16T01:46:17.334Z,99191.84
2024-03-16T01:46:49.506Z,99189.94
2024-03-16T01:47:21.473Z,99188.13
2024-03-16T01:47:54.860Z,99182.81
2024-03-16T01:48:27.013Z,99190.78
2024-03-16T01:48:58.954Z,99187.19
2024-03-16T01:49:30.932Z,99182.72
2024-03-16T01:50:02.926Z,99183.59
2024-03-16T01:50:34.890Z,99184.53
2024-03-16T01:51:08.530Z,99179.22
2024-03-16T01:51:41.116Z,99181.13
2024-03-16T01:52:14.340Z,99179.28
2024-03-16T01:52:48.029Z,99176.75
2024-03-16T01:53:19.953Z,99176.75
2024-03-16T01:53:51.928Z,99180.28
2024-03-16T01:54:24.734Z,99176.94
2024-03-16T01:54:56.962Z,99175.22
2024-03-16T01:55:29.190Z,99177.88
2024-03-16T01:56:01.164Z,99179.69
2024-03-16T01:56:33.744Z,99176.34
2024-03-16T01:57:05.804Z,99180.75
2024-03-16T01:57:41.124Z,99171.03
2024-03-16T01:58:13.126Z,99175.50
2024-03-16T01:58:46.764Z,99179.88
2024-03-16T01:59:19.344Z,99175.50
2024-03-16T01:59:51.356Z,99173.03
2024-03-16T02:00:23.299Z,99175.69
2024-03-16T02:00:55.466Z,99175.69
2024-03-16T02:01:27.603Z,99172.25
2024-03-16T02:02:03.381Z,99167.91
2024-03-16T02:02:38.198Z,99177.56
2024-03-16T02:03:10.418Z,99167.81
2024-03-16T02:03:43.571Z,99180.16
2024-03-16T02:04:15.663Z,99177.28
2024-03-16T02:04:47.773Z,99172.91
2024-03-16T02:05:21.012Z,99172.75
2024-03-16T02:05:52.953Z,99166.47
2024-03-16T02:06:29.902Z,99173.50
2024-03-16T02:07:10.141Z,99170.84
2024-03-16T02:07:45.835Z,99161.81
2024-03-16T02:08:17.773Z,99164.41
2024-03-16T02:08:49.878Z,99168.84
2024-03-16T02:09:22.450Z,99164.31
2024-03-16T02:09:54.442Z,99169.72
2024-03-16T02:10:26.366Z,99172.28
2024-03-16T02:10:58.728Z,99171.44
2024-03-16T02:11:30.724Z,99168.00
2024-03-16T02:12:02.700Z,99172.28
2024-03-16T02:12:35.693Z,99169.63
2024-03-16T02:13:07.974Z,99167.91
2024-03-16T02:13:40.186Z,99172.38
2024-03-16T02:14:12.218Z,99172.38
2024-03-16T02:14:44.312Z,99173.44
2024-03-16T02:15:16.431Z,99166.38
2024-03-16T02:15:48.688Z,99174.28
2024-03-16T02:16:20.667Z,99166.31
2024-03-16T02:16:56.240Z,99175.22
2024-03-16T02:17:28.824Z,99177.97
2024-03-16T02:18:01.012Z,99177.22
2024-03-16T02:18:33.094Z,99170.38
2024-03-16T02:19:05.274Z,99177.28
2024-03-16T02:19:37.218Z,99169.44
2024-03-16T02:20:16.837Z,99177.50
2024-03-16T02:20:49.170Z,99173.03
2024-03-16T02:21:21.228Z,99174.09
2024-03-16T02:21:53.330Z,99175.03
2024-03-16T02:22:25.373Z,99174.91
2024-03-16T02:22:57.366Z,99175.88
2024-03-16T02:23:32.731Z,99177.03
2024-03-16T02:24:05.012Z,99172.44
2024-03-16T02:24:37.646Z,99172.59
2024-03-16T02:25:14.229Z,99158.56
2024-03-16T02:25:46.336Z,99174.59
2024-03-16T02:26:18.294Z,99165.69
2024-03-16T02:26:51.068Z,99166.53
2024-03-16T02:27:23.366Z,99176.22
2024-03-16T02:27:55.410Z,99170.88
2024-03-16T02:28:27.447Z,99167.28
2024-03-16T02:28:59.482Z,99171.59
2024-03-16T02:29:36.635Z,99167.25
2024-03-16T02:30:12.139Z,99169.91
2024-03-16T02:30:44.857Z,99178.00
2024-03-16T02:31:17.055Z,99170.16
2024-03-16T02:31:50.882Z,99169.22
2024-03-16T02:32:23.959Z,99174.69
2024-03-16T02:32:55.991Z,99179.91
2024-03-16T02:33:29.093Z,99173.84
2024-03-16T02:34:01.315Z,99176.41
2024-03-16T02:34:34.706Z,99170.22
2024-03-16T02:35:09.420Z,99175.53
2024-03-16T02:35:41.455Z,99178.97
2024-03-16T02:36:14.538Z,99171.00
2024-03-16T02:36:46.573Z,99171.09
2024-03-16T02:37:20.333Z,99166.63
2024-03-16T02:37:52.234Z,99170.88
2024-03-16T02:38:24.283Z,99170.03
2024-03-16T02:38:56.229Z,99172.59
2024-03-16T02:39:28.179Z,99167.28
2024-03-16T02:40:00.218Z,99169.78
2024-03-16T02:40:33.112Z,99171.44
2024-03-16T02:41:08.650Z,99170.25
2024-03-16T02:41:40.956Z,99164.88
2024-03-16T02:42:12.865Z,99171.03
2024-03-16T02:42:45.519Z,99172.75
2024-03-16T02:43:17.746Z,99173.63
2024-03-16T02:43:49.707Z,99170.19
2024-03-16T02:44:21.603Z,99163.16
2024-03-16T02:44:53.767Z,99167.53
2024-03-16T02:45:25.803Z,99164.88
2024-03-16T02:45:59.797Z,99176.28
2024-03-16T02:46:32.037Z,99165.44
2024-03-16T02:47:05.745Z,99174.94
2024-03-16T02:47:37.849Z,99168.66
2024-03-16T02:48:11.160Z,99172.84
2024-03-16T02:48:43.896Z,99171.03
2024-03-16T02:49:16.724Z,99172.84
2024-03-16T02:49:50.690Z,99173.97
2024-03-16T02:50:22.930Z,99175.69
2024-03-16T02:50:54.912Z,99181.94
2024-03-16T02:51:26.899Z,99176.75
2024-03-16T02:51:59.087Z,99181.13
2024-03-16T02:52:34.659Z,99180.34
2024-03-16T02:53:06.763Z,99180.53
2024-03-16T02:53:38.999Z,99177.09
2024-03-16T02:54:11.008Z,99173.69
2024-03-16T02:54:43.190Z,99177.09
2024-03-16T02:55:15.200Z,99181.59
2024-03-16T02:55:47.169Z,99173.78
2024-03-16T02:56:20.283Z,99180.06
2024-03-16T02:56:52.911Z,99174.16
2024-03-16T02:57:25.598Z,99181.53
2024-03-16T02:57:57.570Z,99166.72
2024-03-16T02:58:30.310Z,99175.06
2024-03-16T02:59:02.847Z,99167.34
2024-03-16T02:59:34.835Z,99166.63
2024-03-16T03:00:13.616Z,99168.59
2024-03-16T03:00:45.622Z,99170.41
2024-03-16T03:01:18.132Z,99162.91
2024-03-16T03:01:50.259Z,99172.69
2024-03-16T03:02:25.592Z,99169.22
2024-03-16T03:02:58.617Z,99172.56
2024-03-16T03:03:30.693Z,99184.81
2024-03-16T03:04:03.191Z,99175.09
2024-03-16T03:04:35.602Z,99178.53
2024-03-16T03:05:12.451Z,99173.41
2024-03-16T03:05:44.744Z,99178.81
2024-03-16T03:06:16.771Z,99186.78
2024-03-16T03:06:48.774Z,99187.81
2024-03-16T03:07:20.957Z,99194.81
2024-03-16T03:07:54.025Z,99192.16
2024-03-16T03:08:26.348Z,99198.44
2024-03-16T03:08:58.259Z,99200.25
2024-03-16T03:09:30.704Z,99208.22
2024-03-16T03:10:02.970Z,99209.06
2024-03-16T03:10:35.085Z,99208.97
2024-03-16T03:11:07.075Z,99204.50
2024-03-16T03:11:39.669Z,99208.91
2024-03-16T03:12:11.643Z,99211.63
2024-03-16T03:12:43.805Z,99210.72
2024-03-16T03:13:15.814Z,99212.31
2024-03-16T03:13:51.829Z,99206.81
2024-03-16T03:14:23.730Z,99203.22
2024-03-16T03:14:55.660Z,99206.53
2024-03-16T03:15:28.427Z,99210.06
2024-03-16T03:16:00.486Z,99204.81
2024-03-16T03:16:32.464Z,99196.69
2024-03-16T03:17:04.453Z,99211.59
2024-03-16T03:17:36.472Z,99198.28
2024-03-16T03:18:08.541Z,99199.81
2024-03-16T03:18:40.676Z,99204.09
2024-03-16T03:19:12.747Z,99204.00
2024-03-16T03:19:46.270Z,99199.44
2024-03-16T03:20:22.129Z,99195.84
2024-03-16T03:20:55.120Z,99190.31
2024-03-16T03:21:27.233Z,99203.53
2024-03-16T03:21:59.191Z,99203.41
2024-03-16T03:22:31.122Z,99207.72
2024-03-16T03:23:06.634Z,99194.31
2024-03-16T03:23:38.681Z,99207.31
2024-03-16T03:24:10.564Z,99207.25
2024-03-16T03:24:42.481Z,99208.94
2024-03-16T03:25:14.792Z,99200.13
2024-03-16T03:25:49.301Z,99197.47
2024-03-16T03:26:21.740Z,99201.81
2024-03-16T03:26:53.673Z,99194.59
2024-03-16T03:27:26.257Z,99200.00
2024-03-16T03:27:58.546Z,99193.94
2024-03-16T03:28:30.513Z,99202.09
2024-03-16T03:29:02.549Z,99194.41
2024-03-16T03:29:34.471Z,99196.31
2024-03-16T03:30:07.447Z,99196.31
2024-03-16T03:30:39.597Z,99205.06
2024-03-16T03:31:12.334Z,99198.75
2024-03-16T03:31:44.387Z,99204.28
2024-03-16T03:32:16.279Z,99201.72
2024-03-16T03:32:48.278Z,99206.19
2024-03-16T03:33:20.254Z,99200.09
2024-03-16T03:33:52.281Z,99207.31
2024-03-16T03:34:25.267Z,99206.66
2024-03-16T03:34:57.241Z,99203.22
2024-03-16T03:35:29.900Z,99213.31
2024-03-16T03:36:04.065Z,99217.84
2024-03-16T03:36:36.206Z,99211.78
2024-03-16T03:37:09.248Z,99211.78
2024-03-16T03:37:41.195Z,99211.84
2024-03-16T03:38:13.189Z,99214.63
2024-03-16T03:38:45.290Z,99212.81
2024-03-16T03:39:17.965Z,99214.72
2024-03-16T03:39:53.796Z,99220.03
2024-03-16T03:40:26.597Z,99212.81
2024-03-16T03:40:59.025Z,99212.13
2024-03-16T03:41:30.914Z,99210.44
2024-03-16T03:42:02.810Z,99214.91
2024-03-16T03:42:36.298Z,99210.63
2024-03-16T03:43:18.294Z,99211.47
2024-03-16T03:43:59.005Z,99211.38
2024-03-16T03:44:51.282Z,99210.94
2024-03-16T03:45:28.995Z,99211.16
2024-03-16T03:46:01.041Z,99213.97
2024-03-16T03:46:52.088Z,99202.13
2024-03-16T03:47:31.719Z,99205.88
2024-03-16T03:48:05.563Z,99207.34
2024-03-16T03:48:37.826Z,99202.97
2024-03-16T03:49:13.173Z,99208.09
2024-03-16T03:49:52.177Z,99204.56
2024-03-16T03:50:30.557Z,99199.06
2024-03-16T03:51:04.171Z,99196.41
2024-03-16T03:51:36.234Z,99198.81
2024-03-16T03:52:08.296Z,99199.66
2024-03-16T03:52:40.251Z,99198.75
2024-03-16T03:53:12.385Z,99202.25
2024-03-16T03:53:44.714Z,99200.34
2024-03-16T03:54:16.632Z,99199.41
2024-03-16T03:54:48.704Z,99201.97
2024-03-16T03:55:20.780Z,99200.28
2024-03-16T03:55:53.526Z,99201.22
2024-03-16T03:56:25.456Z,99196.66
2024-03-16T03:56:57.458Z,99201.03
2024-03-16T03:57:29.576Z,99199.41
2024-03-16T03:58:03.583Z,99195.16
2024-03-16T03:58:35.750Z,99200.34
2024-03-16T03:59:07.855Z,99197.69
2024-03-16T03:59:39.865Z,99196.75
2024-03-16T04:00:12.407Z,99198.38
2024-03-16T04:00:45.948Z,99196.56
2024-03-16T04:01:18.987Z,99197.50
2024-03-16T04:01:51.085Z,99194.97
2024-03-16T04:02:23.054Z,99197.50
2024-03-16T04:02:55.152Z,99196.75
2024-03-16T04:03:27.141Z,99198.47
2024-03-16T04:04:00.186Z,99197.50
2024-03-16T04:04:32.627Z,99192.19
2024-03-16T04:05:04.888Z,99196.66
2024-03-16T04:05:37.863Z,99207.19
2024-03-16T04:06:09.840Z,99195.81
2024-03-16T04:06:45.933Z,99204.63
2024-03-16T04:07:18.169Z,99196.75
2024-03-16T04:07:50.161Z,99201.13
2024-03-16T04:08:22.164Z,99204.72
2024-03-16T04:08:54.048Z,99209.19
2024-03-16T04:09:26.034Z,99205.00
2024-03-16T04:09:58.057Z,99206.97
2024-03-16T04:10:29.982Z,99205.16
2024-03-16T04:11:07.105Z,99204.25
2024-03-16T04:11:40.991Z,99207.03
2024-03-16T04:12:13.993Z,99216.72
2024-03-16T04:12:46.966Z,99205.44
2024-03-16T04:13:19.077Z,99206.28
2024-03-16T04:13:51.024Z,99208.00
2024-03-16T04:14:23.557Z,99208.78
2024-03-16T04:14:55.498Z,99210.47
2024-03-16T04:15:27.927Z,99210.56
2024-03-16T04:15:59.939Z,99214.06
2024-03-16T04:16:31.995Z,99208.78
2024-03-16T04:17:04.145Z,99217.59
2024-03-16T04:17:36.109Z,99206.22
2024-03-16T04:18:08.328Z,99208.88
2024-03-16T04:18:40.471Z,99213.16
2024-03-16T04:19:12.605Z,99209.63
2024-03-16T04:19:45.804Z,99210.41
2024-03-16T04:20:21.446Z,99207.81
2024-03-16T04:20:53.327Z,99212.09
2024-03-16T04:21:25.472Z,99207.66
2024-03-16T04:21:57.442Z,99206.97
2024-03-16T04:22:29.452Z,99206.03
2024-03-16T04:23:02.797Z,99207.75
2024-03-16T04:23:35.183Z,99211.22
2024-03-16T04:24:07.594Z,99205.94
2024-03-16T04:24:39.545Z,99199.78
2024-03-16T04:25:15.518Z,99211.22
2024-03-16T04:25:50.235Z,99206.13
2024-03-16T04:26:22.310Z,99206.91
2024-03-16T04:26:54.260Z,99213.06
2024-03-16T04:27:26.257Z,99207.81
2024-03-16T04:27:58.289Z,99205.25
2024-03-16T04:28:30.519Z,99214.06
2024-03-16T04:29:02.477Z,99219.38
2024-03-16T04:29:34.384Z,99215.97
2024-03-16T04:30:10.580Z,99208.94
2024-03-16T04:30:42.542Z,99217.84
2024-03-16T04:31:14.584Z,99214.53
2024-03-16T04:31:47.156Z,99209.41
2024-03-16T04:32:19.347Z,99213.28
2024-03-16T04:32:51.466Z,99215.06
2024-03-16T04:33:23.571Z,99217.88
2024-03-16T04:33:55.540Z,99209.84
2024-03-16T04:34:28.048Z,99212.50
2024-03-16T04:35:00.502Z,99218.75
2024-03-16T04:35:32.391Z,99210.78
2024-03-16T04:36:04.431Z,99208.97
2024-03-16T04:36:36.740Z,99214.28
2024-03-16T04:37:10.018Z,99210.88
2024-03-16T04:37:41.961Z,99213.53
2024-03-16T04:38:14.373Z,99208.22
2024-03-16T04:38:46.320Z,99209.91
2024-03-16T04:39:18.411Z,99215.16
2024-03-16T04:39:50.341Z,99213.53
2024-03-16T04:40:22.451Z,99218.75
2024-03-16T04:40:55.492Z,99210.78
2024-03-16T04:41:28.861Z,99211.63
2024-03-16T04:42:01.894Z,99217.72
2024-03-16T04:42:33.968Z,99219.53
2024-03-16T04:43:06.140Z,99217.06
2024-03-16T04:43:38.185Z,99219.97
2024-03-16T04:44:10.116Z,99220.16
2024-03-16T04:44:42.166Z,99224.69
2024-03-16T04:45:14.146Z,99223.06
2024-03-16T04:45:51.707Z,99220.47
2024-03-16T04:46:24.654Z,99224.00
2024-03-16T04:46:56.746Z,99220.47
2024-03-16T04:47:28.935Z,99222.19
2024-03-16T04:48:00.975Z,99224.00
2024-03-16T04:48:32.954Z,99230.25
2024-03-16T04:49:05.916Z,99227.59
2024-03-16T04:49:37.924Z,99220.41
2024-03-16T04:50:12.732Z,99220.41
2024-03-16T04:50:45.546Z,99220.41
2024-03-16T04:51:18.333Z,99227.50
2024-03-16T04:51:50.287Z,99221.25
2024-03-16T04:52:22.410Z,99230.09
2024-03-16T04:52:54.335Z,99231.78
2024-03-16T04:53:26.225Z,99228.38
2024-03-16T04:53:58.398Z,99227.59
2024-03-16T04:54:30.650Z,99229.50
2024-03-16T04:55:04.572Z,99225.28
2024-03-16T04:55:36.683Z,99233.25
2024-03-16T04:56:08.631Z,99231.47
2024-03-16T04:56:40.546Z,99230.09
2024-03-16T04:57:13.854Z,99242.50
2024-03-16T04:57:45.911Z,99230.00
2024-03-16T04:58:18.081Z,99236.09
2024-03-16T04:58:50.184Z,99234.97
2024-03-16T04:59:22.064Z,99230.59
2024-03-16T04:59:54.034Z,99238.50
2024-03-16T05:00:26.116Z,99235.06
2024-03-16T05:00:59.963Z,99241.16
2024-03-16T05:01:32.118Z,99240.19
2024-03-16T05:02:04.290Z,99240.19
2024-03-16T05:02:36.298Z,99237.69
2024-03-16T05:03:08.192Z,99234.97
2024-03-16T05:03:40.264Z,99242.00
2024-03-16T05:04:12.374Z,99244.66
2024-03-16T05:04:44.426Z,99242.75
2024-03-16T05:05:16.397Z,99238.31
2024-03-16T05:05:51.717Z,99240.97
2024-03-16T05:06:23.855Z,99238.38
2024-03-16T05:06:55.889Z,99233.31
2024-03-16T05:07:27.849Z,99232.13
2024-03-16T05:07:59.933Z,99234.88
2024-03-16T05:08:32.054Z,99238.38
2024-03-16T05:09:06.794Z,99238.50
2024-03-16T05:09:38.720Z,99234.13
2024-03-16T05:10:12.827Z,99232.22
2024-03-16T05:10:51.171Z,99226.06
2024-03-16T05:11:23.260Z,99233.00
2024-03-16T05:11:56.118Z,99237.28
2024-03-16T05:12:28.227Z,99244.31
2024-03-16T05:13:00.206Z,99240.72
2024-03-16T05:13:34.687Z,99241.53
2024-03-16T05:14:07.551Z,99242.41
2024-03-16T05:14:39.471Z,99245.06
2024-03-16T05:15:11.437Z,99240.72
2024-03-16T05:15:43.410Z,99237.88
2024-03-16T05:16:15.436Z,99242.41
2024-03-16T05:16:47.407Z,99241.38
2024-03-16T05:17:19.443Z,99239.75
2024-03-16T05:17:51.509Z,99243.38
2024-03-16T05:18:23.457Z,99244.38
2024-03-16T05:18:55.402Z,99239.06
2024-03-16T05:19:27.380Z,99244.47
2024-03-16T05:19:59.580Z,99244.47
2024-03-16T05:20:31.529Z,99243.50
2024-03-16T05:21:03.787Z,99242.69
2024-03-16T05:21:36.344Z,99242.59
2024-03-16T05:22:09.142Z,99242.50
2024-03-16T05:22:41.175Z,99242.59
2024-03-16T05:23:13.549Z,99242.31
2024-03-16T05:23:46.847Z,99245.84
2024-03-16T05:24:18.862Z,99248.31
2024-03-16T05:24:50.822Z,99246.53
2024-03-16T05:25:23.857Z,99253.38
2024-03-16T05:25:55.854Z,99247.28
2024-03-16T05:26:30.198Z,99246.34
2024-03-16T05:27:02.179Z,99246.34
2024-03-16T05:27:36.632Z,99249.84
2024-03-16T05:28:08.746Z,99254.31
2024-03-16T05:28:41.015Z,99253.38
2024-03-16T05:29:12.948Z,99247.03
2024-03-16T05:29:44.909Z,99249.69
2024-03-16T05:30:16.853Z,99254.91
2024-03-16T05:30:53.810Z,99251.41
2024-03-16T05:31:25.939Z,99259.38
2024-03-16T05:32:00.412Z,99250.47
2024-03-16T05:32:32.475Z,99245.03
2024-03-16T05:33:08.262Z,99256.53
2024-03-16T05:33:40.526Z,99255.47
2024-03-16T05:34:12.557Z,99251.88
2024-03-16T05:34:44.584Z,99249.25
2024-03-16T05:35:17.384Z,99255.47
2024-03-16T05:35:49.359Z,99243.06
2024-03-16T05:36:21.386Z,99249.25
2024-03-16T05:36:53.449Z,99251.03
2024-03-16T05:37:27.214Z,99251.03
2024-03-16T05:37:59.902Z,99257.03
2024-03-16T05:38:31.821Z,99248.13
2024-03-16T05:39:04.011Z,99248.13
2024-03-16T05:39:36.512Z,99254.28
2024-03-16T05:40:12.445Z,99251.53
2024-03-16T05:40:47.260Z,99252.31
2024-03-16T05:41:19.279Z,99249.72
2024-03-16T05:41:51.619Z,99243.47
2024-03-16T05:42:23.576Z,99247.06
2024-03-16T05:42:56.116Z,99251.38
2024-03-16T05:43:28.160Z,99252.13
2024-03-16T05:44:00.233Z,99248.63
2024-03-16T05:44:32.421Z,99250.34
2024-03-16T05:45:04.797Z,99249.41
2024-03-16T05:45:37.579Z,99249.97
2024-03-16T05:46:09.664Z,99247.31
2024-03-16T05:46:42.185Z,99247.31
2024-03-16T05:47:14.206Z,99244.66
2024-03-16T05:47:46.198Z,99243.03
2024-03-16T05:48:19.253Z,99245.50
2024-03-16T05:48:51.512Z,99240.13
2024-03-16T05:49:26.050Z,99249.97
2024-03-16T05:49:58.780Z,99249.09
2024-03-16T05:50:30.660Z,99242.78
2024-03-16T05:51:03.738Z,99247.97
2024-03-16T05:51:36.030Z,99248.75
2024-03-16T05:52:08.190Z,99249.63
2024-03-16T05:52:40.227Z,99244.19
2024-03-16T05:53:15.605Z,99250.50
2024-03-16T05:53:48.208Z,99249.69
2024-03-16T05:54:20.127Z,99261.19
2024-03-16T05:54:52.571Z,99254.94
2024-03-16T05:55:24.721Z,99252.44
2024-03-16T05:55:56.708Z,99257.66
2024-03-16T05:56:28.665Z,99254.25
2024-03-16T05:57:00.734Z,99258.53
2024-03-16T05:57:32.852Z,99254.06
2024-03-16T05:58:04.910Z,99255.88
2024-03-16T05:58:37.017Z,99256.81
2024-03-16T05:59:10.210Z,99250.63
2024-03-16T05:59:42.325Z,99256.72
2024-03-16T06:00:16.984Z,99259.28
2024-03-16T06:00:49.957Z,99252.84
2024-03-16T06:01:22.873Z,99257.22
2024-03-16T06:01:55.170Z,99259.03
2024-03-16T06:02:27.104Z,99246.78
2024-03-16T06:02:59.119Z,99262.47
2024-03-16T06:03:31.935Z,99249.00
2024-03-16T06:04:04.194Z,99254.19
2024-03-16T06:04:36.650Z,99255.06
2024-03-16T06:05:09.040Z,99251.47
2024-03-16T06:05:42.509Z,99249.66
2024-03-16T06:06:14.486Z,99257.38
2024-03-16T06:06:47.800Z,99255.47
2024-03-16T06:07:21.858Z,99255.38
2024-03-16T06:07:53.837Z,99264.09
2024-03-16T06:08:25.831Z,99259.66
2024-03-16T06:08:57.720Z,99260.50
2024-03-16T06:09:29.730Z,99258.59
2024-03-16T06:10:01.824Z,99257.66
2024-03-16T06:10:33.830Z,99260.28
2024-03-16T06:11:06.115Z,99265.50
2024-03-16T06:11:38.070Z,99261.81
2024-03-16T06:12:10.820Z,99274.06
2024-03-16T06:12:42.780Z,99265.03
2024-03-16T06:13:14.798Z,99268.75
2024-03-16T06:13:46.854Z,99267.03
2024-03-16T06:14:18.837Z,99275.00
2024-03-16T06:14:52.089Z,99273.28
2024-03-16T06:15:24.275Z,99275.84
2024-03-16T06:15:56.306Z,99277.66
2024-03-16T06:16:28.360Z,99274.13
2024-03-16T06:17:00.225Z,99281.25
2024-03-16T06:17:32.405Z,99277.75
2024-03-16T06:18:04.788Z,99280.41
2024-03-16T06:18:38.962Z,99272.44
2024-03-16T06:19:13.626Z,99274.81
2024-03-16T06:19:45.565Z,99278.25
2024-03-16T06:20:19.749Z,99275.47
2024-03-16T06:20:52.744Z,99275.47
2024-03-16T06:21:24.645Z,99277.13
2024-03-16T06:21:56.910Z,99275.13
2024-03-16T06:22:28.918Z,99276.75
2024-03-16T06:23:00.827Z,99282.84
2024-03-16T06:23:33.767Z,99276.53
2024-03-16T06:24:06.272Z,99274.56
2024-03-16T06:24:38.208Z,99276.19